createdAt,value
2019-04-26T00:03:16.676Z,88.262939
2019-04-26T00:08:39.498Z,85.919189
2019-04-26T00:14:02.895Z,86.834717
2019-04-26T00:19:25.610Z,88.775635
2019-04-26T00:24:48.333Z,87.042236
2019-04-26T00:30:12.879Z,88.409424
2019-04-26T00:35:46.768Z,89.880371
2019-04-26T00:40:58.513Z,90.594482
2019-04-26T00:46:21.284Z,91.864014
2019-04-26T00:51:44.371Z,93.07251
2019-04-26T00:57:07.162Z,92.602539
2019-04-26T01:02:30.891Z,95.263672
2019-04-26T01:07:53.657Z,95.10498
2019-04-26T01:13:17.739Z,95.6604
2019-04-26T01:18:40.253Z,95.819092
2019-04-26T01:24:03.024Z,95.76416
2019-04-26T01:29:25.988Z,97.302246
2019-04-26T01:34:48.386Z,96.893311
2019-04-26T01:40:11.164Z,97.753906
2019-04-26T01:45:33.866Z,98.052979
2019-04-26T01:50:56.676Z,98.303223
2019-04-26T01:56:19.545Z,99.993896
2019-04-26T02:01:43.276Z,99.645996
2019-04-26T02:07:06.073Z,98.925781
2019-04-26T02:12:28.879Z,98.406982
2019-04-26T02:17:51.631Z,99.633789
2019-04-26T02:23:14.443Z,99.993896
2019-04-26T02:28:37.171Z,99.755859
2019-04-26T02:33:59.922Z,97.961426
2019-04-26T02:39:22.704Z,98.883057
2019-04-26T02:44:46.533Z,99.182129
2019-04-26T02:50:09.232Z,99.993896
2019-04-26T02:55:36.694Z,99.993896
2019-04-26T03:00:55.763Z,99.993896
2019-04-26T03:06:22.752Z,99.993896
2019-04-26T03:11:46.509Z,99.993896
2019-04-26T03:17:09.253Z,99.993896
2019-04-26T03:22:33.755Z,99.993896
2019-04-26T03:27:55.782Z,99.993896
2019-04-26T03:33:18.577Z,99.993896
2019-04-26T03:38:41.816Z,99.993896
2019-04-26T03:44:03.963Z,99.993896
2019-04-26T03:49:26.723Z,99.993896
2019-04-26T03:54:50.506Z,99.993896
2019-04-26T04:00:13.261Z,99.993896
2019-04-26T04:05:37.799Z,99.914551
2019-04-26T04:11:00.640Z,99.993896
2019-04-26T04:16:23.488Z,99.664307
2019-04-26T04:21:47.050Z,99.151611
2019-04-26T04:27:09.020Z,99.005127
2019-04-26T04:32:31.839Z,98.492432
2019-04-26T04:38:08.302Z,98.651123
2019-04-26T04:43:20.261Z,97.833252
2019-04-26T04:48:44.353Z,97.631836
2019-04-26T04:54:06.463Z,97.631836
2019-04-26T04:59:30.090Z,97.735596
2019-04-26T05:04:53.223Z,97.937012
2019-04-26T05:10:15.653Z,97.937012
2019-04-26T05:15:39.100Z,98.144531
2019-04-26T05:21:01.935Z,98.199463
2019-04-26T05:26:24.699Z,97.686768
2019-04-26T05:31:49.589Z,97.790527
2019-04-26T05:37:10.276Z,97.845459
2019-04-26T05:42:33.017Z,97.027588
2019-04-26T05:48:07.901Z,95.703125
2019-04-26T05:53:19.463Z,95.043945
2019-04-26T05:58:42.167Z,94.433594
2019-04-26T06:04:05.018Z,93.206787
2019-04-26T06:09:27.900Z,91.97998
2019-04-26T06:14:51.820Z,90.447998
2019-04-26T06:20:22.490Z,89.837646
2019-04-26T06:25:38.901Z,90.081787
2019-04-26T06:31:01.780Z,89.880371
2019-04-26T06:36:25.552Z,89.532471
2019-04-26T06:41:48.275Z,90.856934
2019-04-26T06:47:12.177Z,91.064453
2019-04-26T06:52:34.854Z,91.412354
2019-04-26T06:57:59.334Z,91.674805
2019-04-26T07:03:20.495Z,91.064453
2019-04-26T07:08:56.331Z,92.230225
2019-04-26T07:14:07.061Z,94.067383
2019-04-26T07:19:29.694Z,95.495605
2019-04-26T07:24:53.325Z,94.885254
2019-04-26T07:30:16.066Z,94.885254
2019-04-26T07:35:38.817Z,95.19043
2019-04-26T07:41:01.624Z,95.294189
2019-04-26T07:46:24.275Z,97.027588
2019-04-26T07:51:46.985Z,96.923828
2019-04-26T07:57:10.735Z,97.949219
2019-04-26T08:02:32.530Z,98.66333
2019-04-26T08:07:55.221Z,97.174072
2019-04-26T08:13:17.916Z,96.313477
2019-04-26T08:18:40.592Z,98.199463
2019-04-26T08:24:05.182Z,97.277832
2019-04-26T08:29:29.800Z,97.540283
2019-04-26T08:34:50.731Z,96.417236
2019-04-26T08:40:14.416Z,95.440674
2019-04-26T08:45:37.077Z,97.381592
2019-04-26T08:51:01.588Z,97.991943
2019-04-26T08:56:25.277Z,99.11499
2019-04-26T09:01:47.954Z,99.627686
2019-04-26T09:07:10.605Z,99.017334
2019-04-26T09:12:33.266Z,98.358154
2019-04-26T09:17:55.958Z,98.266602
2019-04-26T09:23:19.658Z,96.166992
2019-04-26T09:28:43.152Z,95.874023
2019-04-26T09:34:10.351Z,96.551514
2019-04-26T09:39:29.920Z,93.292236
2019-04-26T09:44:53.547Z,93.237305
2019-04-26T09:50:17.018Z,92.504883
2019-04-26T09:55:38.946Z,90.686035
2019-04-26T10:01:01.604Z,89.520264
2019-04-26T10:06:26.058Z,86.895752
2019-04-26T10:11:48.530Z,87.976074
2019-04-26T10:17:15.535Z,86.859131
2019-04-26T10:22:34.650Z,84.289551
2019-04-26T10:27:57.414Z,86.309814
2019-04-26T10:33:20.070Z,85.473633
2019-04-26T10:38:42.745Z,78.277588
2019-04-26T10:44:05.465Z,79.418945
2019-04-26T10:49:28.091Z,82.287598
2019-04-26T10:54:50.804Z,77.185059
2019-04-26T11:00:14.019Z,77.935791
2019-04-26T11:05:36.141Z,80.194092
2019-04-26T11:10:58.799Z,77.758789
2019-04-26T11:16:21.627Z,77.563477
2019-04-26T11:21:44.291Z,80.487061
2019-04-26T11:27:09.539Z,81.060791
2019-04-26T11:32:33.082Z,79.736328
2019-04-26T11:37:55.070Z,82.116699
2019-04-26T11:43:19.431Z,80.24292
2019-04-26T11:48:38.782Z,80.92041
2019-04-26T11:54:01.483Z,80.548096
2019-04-26T11:59:26.980Z,82.788086
2019-04-26T12:04:49.424Z,79.968262
2019-04-26T12:10:11.362Z,76.751709
2019-04-26T12:15:33.581Z,77.355957
2019-04-26T12:21:00.925Z,72.479248
2019-04-26T12:26:23.102Z,75.421143
2019-04-26T12:31:48.795Z,72.412109
2019-04-26T12:37:12.488Z,71.09375
2019-04-26T12:42:35.203Z,75.280762
2019-04-26T12:47:58.956Z,74.169922
2019-04-26T12:53:26.540Z,71.704102
2019-04-26T12:58:49.887Z,76.44043
2019-04-26T13:04:09.039Z,73.803711
2019-04-26T13:09:31.747Z,73.76709
2019-04-26T13:14:54.394Z,76.092529
2019-04-26T13:20:17.109Z,71.466064
2019-04-26T13:25:40.816Z,75.323486
2019-04-26T13:31:03.498Z,75.830078
2019-04-26T13:36:28.993Z,76.098633
2019-04-26T13:41:56.193Z,75.689697
2019-04-26T13:47:12.539Z,71.972656
2019-04-26T13:52:35.226Z,71.19751
2019-04-26T13:57:57.909Z,69.244385
2019-04-26T14:03:20.627Z,70.422363
2019-04-26T14:08:44.262Z,68.261719
2019-04-26T14:14:08.600Z,68.530273
2019-04-26T14:19:31.207Z,72.546387
2019-04-26T14:24:56.899Z,71.466064
2019-04-26T14:30:16.527Z,70.587158
2019-04-26T14:35:39.225Z,72.918701
2019-04-26T14:41:04.515Z,71.130371
2019-04-26T14:46:27.258Z,71.130371
2019-04-26T14:51:50.759Z,71.972656
2019-04-26T14:57:19.835Z,70.288086
2019-04-26T15:02:36.396Z,72.009277
2019-04-26T15:08:03.658Z,71.160889
2019-04-26T15:13:24.497Z,68.768311
2019-04-26T15:18:48.160Z,68.261719
2019-04-26T15:24:12.701Z,70.050049
2019-04-26T15:29:33.496Z,71.569824
2019-04-26T15:34:58.512Z,75.12207
2019-04-26T15:40:19.243Z,72.277832
2019-04-26T15:45:42.905Z,72.851562
2019-04-26T15:51:05.575Z,71.704102
2019-04-26T15:56:29.220Z,69.744873
2019-04-26T16:01:52.086Z,72.717285
2019-04-26T16:07:25.687Z,68.188477
2019-04-26T16:12:38.171Z,69.744873
2019-04-26T16:18:02.375Z,68.328857
2019-04-26T16:23:24.510Z,61.895752
2019-04-26T16:28:48.072Z,58.1604
2019-04-26T16:34:11.757Z,62.249756
2019-04-26T16:39:38.767Z,57.427979
2019-04-26T16:44:56.412Z,55.26123
2019-04-26T16:50:22.995Z,56.219482
2019-04-26T16:55:52.104Z,56.140137
2019-04-26T17:01:10.325Z,57.434082
2019-04-26T17:06:32.227Z,62.805176
2019-04-26T17:11:55.803Z,63.397217
2019-04-26T17:17:18.533Z,64.611816
2019-04-26T17:22:45.132Z,65.527344
2019-04-26T17:28:04.801Z,68.359375
2019-04-26T17:33:29.205Z,69.171143
2019-04-26T17:38:51.635Z,67.346191
2019-04-26T17:44:14.217Z,65.05127
2019-04-26T17:49:39.098Z,66.601562
2019-04-26T17:55:00.549Z,68.658447
2019-04-26T18:00:26.866Z,67.169189
2019-04-26T18:05:56.925Z,68.829346
2019-04-26T18:11:19.891Z,70.617676
2019-04-26T18:16:42.703Z,72.546387
2019-04-26T18:22:04.102Z,73.840332
2019-04-26T18:27:29.809Z,78.515625
2019-04-26T18:32:51.634Z,81.036377
2019-04-26T18:38:14.556Z,84.228516
2019-04-26T18:43:37.485Z,87.060547
2019-04-26T18:49:00.717Z,88.061523
2019-04-26T18:54:23.527Z,89.080811
2019-04-26T18:59:51.010Z,88.409424
2019-04-26T19:05:08.801Z,88.61084
2019-04-26T19:10:34.086Z,91.204834
2019-04-26T19:15:54.139Z,91.864014
2019-04-26T19:21:16.845Z,93.847656
2019-04-26T19:26:39.475Z,92.926025
2019-04-26T19:32:04.339Z,94.915771
2019-04-26T19:37:26.587Z,93.688965
2019-04-26T19:42:53.756Z,94.445801
2019-04-26T19:48:18.800Z,95.001221
2019-04-26T19:53:36.999Z,94.696045
2019-04-26T19:59:00.902Z,95.6604
2019-04-26T20:04:24.400Z,94.63501
2019-04-26T20:09:47.503Z,95.86792
2019-04-26T20:15:25.083Z,95.703125
2019-04-26T20:20:36.302Z,96.630859
2019-04-26T20:26:00.819Z,96.97876
2019-04-26T20:31:21.552Z,97.08252
2019-04-26T20:36:47.712Z,96.97876
2019-04-26T20:42:07.920Z,97.906494
2019-04-26T20:47:32.020Z,97.802734
2019-04-26T20:53:00.032Z,97.491455
2019-04-26T20:58:16.933Z,98.00415
2019-04-26T21:03:42.697Z,98.254395
2019-04-26T21:09:06.249Z,98.608398
2019-04-26T21:14:25.869Z,99.121094
2019-04-26T21:19:49.760Z,98.406982
2019-04-26T21:25:13.160Z,98.199463
2019-04-26T21:30:38.605Z,97.894287
2019-04-26T21:36:01.845Z,97.894287
2019-04-26T21:41:23.595Z,97.686768
2019-04-26T21:46:49.465Z,98.345947
2019-04-26T21:52:10.584Z,98.040771
2019-04-26T21:57:34.971Z,98.040771
2019-04-26T22:02:56.431Z,97.98584
2019-04-26T22:08:24.480Z,98.602295
2019-04-26T22:13:44.720Z,98.498535
2019-04-26T22:19:05.655Z,99.316406
2019-04-26T22:24:28.618Z,98.699951
2019-04-26T22:29:51.725Z,98.040771
2019-04-26T22:35:19.905Z,98.345947
2019-04-26T22:40:37.494Z,97.320557
2019-04-26T22:46:00.434Z,97.98584
2019-04-26T22:51:23.278Z,97.88208
2019-04-26T22:56:46.947Z,98.602295
2019-04-26T23:02:09.571Z,98.748779
2019-04-26T23:07:33.366Z,98.956299
2019-04-26T23:12:57.922Z,99.157715
2019-04-26T23:18:19.612Z,98.64502
2019-04-26T23:23:42.769Z,98.54126
2019-04-26T23:29:08.113Z,99.053955
2019-04-26T23:34:29.447Z,98.236084
2019-04-26T23:39:54.021Z,98.486328
2019-04-26T23:45:17.412Z,99.310303
2019-04-26T23:50:40.470Z,98.852539
2019-04-26T23:56:03.076Z,97.833252
